Time;durP1;ratioP1;P1;durP2;ratioP2;P2;SDS_P1;SDS_P2;PMS_P1;PMS_P2;Temp;Humidity;BMP_temperature;BMP_pressure;BME280_temperature;BME280_humidity;BME280_pressure;Samples;Min_cycle;Max_cycle;Signal;HPM_P1;HPM_P2
2022/01/30 00:00:14;;;;;;;25.17;5.43;;;5.10;99.90;;;;;;2132212;67;20223;-72
2022/01/30 00:02:56;;;;;;;20.02;5.32;;;5.20;99.90;;;;;;2136255;67;20682;-73
2022/01/30 00:05:37;;;;;;;14.68;5.13;;;5.30;99.90;;;;;;2141708;66;20216;-73
2022/01/30 00:08:19;;;;;;;18.55;4.47;;;5.40;99.90;;;;;;2134515;67;20218;-70
2022/01/30 00:11:09;;;;;;;18.75;6.68;;;5.50;99.90;;;;;;2132869;67;20227;-73
2022/01/30 00:13:51;;;;;;;17.80;4.35;;;5.60;99.90;;;;;;2130927;67;20300;-73
2022/01/30 00:16:36;;;;;;;15.07;3.95;;;5.60;99.90;;;;;;2125143;67;20434;-72
2022/01/30 00:19:31;;;;;;;15.65;2.97;;;5.30;99.90;;;;;;2110400;67;20217;-73
2022/01/30 00:25:16;;;;;;;12.88;2.70;;;5.00;99.90;;;;;;2132078;67;20752;-72
2022/01/30 00:28:06;;;;;;;;;;;5.00;99.90;;;;;;2132076;67;20201;-72
2022/01/30 00:30:49;;;;;;;12.50;2.75;;;5.00;99.90;;;;;;2132698;67;20568;-71
2022/01/30 00:33:32;;;;;;;14.98;3.42;;;4.90;99.90;;;;;;2130128;67;20838;-73
2022/01/30 00:36:17;;;;;;;;;;;5.10;99.90;;;;;;2132967;67;20603;-72
2022/01/30 00:39:01;;;;;;;8.82;3.42;;;4.90;99.90;;;;;;2144875;66;20199;-72
2022/01/30 00:41:45;;;;;;;13.80;2.85;;;4.80;99.90;;;;;;2147241;66;20426;-71
2022/01/30 00:44:33;;;;;;;13.65;2.67;;;4.90;99.90;;;;;;2144022;66;20381;-72
2022/01/30 00:47:15;;;;;;;16.73;3.90;;;4.50;99.90;;;;;;2137035;67;20348;-72
2022/01/30 00:49:57;;;;;;;19.45;5.20;;;4.30;99.90;;;;;;2133312;66;20197;-72
2022/01/30 00:52:39;;;;;;;22.73;4.47;;;4.30;99.90;;;;;;2133707;67;20400;-73
2022/01/30 00:55:26;;;;;;;23.40;5.40;;;4.40;99.90;;;;;;2136375;67;20200;-71
2022/01/30 00:58:08;;;;;;;22.10;4.32;;;4.40;99.90;;;;;;2124384;67;20371;-72
2022/01/30 01:00:51;;;;;;;25.20;5.38;;;4.50;99.90;;;;;;2125429;67;20252;-72
2022/01/30 01:03:39;;;;;;;20.70;5.80;;;4.50;99.90;;;;;;2131683;67;20304;-73
2022/01/30 01:06:21;;;;;;;19.88;5.00;;;4.50;99.90;;;;;;2133132;66;20199;-76
2022/01/30 01:09:05;;;;;;;16.48;4.72;;;4.50;99.90;;;;;;2138207;67;20310;-73
2022/01/30 01:12:34;;;;;;;16.60;4.95;;;4.50;99.90;;;;;;2146152;66;20303;-72
2022/01/30 01:24:10;;;;;;;19.90;5.68;;;4.80;99.90;;;;;;2124870;67;20264;-73
2022/01/30 01:26:53;;;;;;;20.25;5.63;;;5.00;99.90;;;;;;2134297;67;20164;-73
2022/01/30 01:29:40;;;;;;;20.17;5.88;;;5.10;99.90;;;;;;2129825;67;20180;-73
2022/01/30 01:32:27;;;;;;;21.40;5.47;;;5.20;99.90;;;;;;2132911;67;20731;-72
2022/01/30 01:35:09;;;;;;;21.65;5.28;;;5.30;99.90;;;;;;2144456;66;20178;-73
2022/01/30 01:37:55;;;;;;;22.85;5.32;;;5.20;99.90;;;;;;2139553;66;20183;-72
2022/01/30 01:40:40;;;;;;;21.80;4.25;;;5.20;99.90;;;;;;2125166;67;20188;-73
2022/01/30 01:43:23;;;;;;;16.63;5.20;;;5.20;99.90;;;;;;2120555;67;20207;-73
2022/01/30 01:46:13;;;;;;;21.55;5.43;;;5.10;99.90;;;;;;2118260;67;20318;-73
2022/01/30 01:48:55;;;;;;;21.30;4.68;;;5.10;99.90;;;;;;2108544;67;20315;-73
2022/01/30 01:51:46;;;;;;;20.98;4.57;;;5.10;99.90;;;;;;2104289;67;20238;-73
2022/01/30 01:54:30;;;;;;;16.92;4.05;;;4.90;99.90;;;;;;2105295;67;20789;-72
2022/01/30 01:57:14;;;;;;;17.90;5.15;;;4.80;99.90;;;;;;2102794;67;20400;-73
2022/01/30 01:59:59;;;;;;;26.77;5.63;;;4.80;99.90;;;;;;2098463;68;20198;-73
2022/01/30 02:02:44;;;;;;;24.63;4.88;;;4.80;99.90;;;;;;2098204;67;20206;-72
2022/01/30 02:05:28;;;;;;;23.50;5.65;;;4.90;99.90;;;;;;2091537;68;20320;-73
2022/01/30 02:08:28;;;;;;;24.23;5.80;;;5.00;99.90;;;;;;2112853;67;20592;-74
2022/01/30 02:11:38;;;;;;;24.80;5.43;;;5.20;99.90;;;;;;2127042;67;20341;-72
2022/01/30 02:14:45;;;;;;;20.27;6.05;;;5.30;99.90;;;;;;2135929;67;20196;-73
2022/01/30 02:26:20;;;;;;;25.30;7.32;;;5.50;99.90;;;;;;2125608;67;20245;-73
2022/01/30 02:29:03;;;;;;;21.98;6.15;;;5.30;99.90;;;;;;2139925;66;20182;-73
2022/01/30 02:31:46;;;;;;;22.70;6.15;;;5.40;99.90;;;;;;2138678;67;20296;-73
2022/01/30 02:34:32;;;;;;;23.38;5.07;;;5.20;99.90;;;;;;2127212;67;20326;-71
2022/01/30 02:37:17;;;;;;;26.70;6.28;;;5.20;99.90;;;;;;2136305;67;20183;-72
2022/01/30 02:39:59;;;;;;;27.02;7.10;;;5.10;99.90;;;;;;2132229;67;20178;-72
2022/01/30 02:42:47;;;;;;;30.70;6.90;;;5.10;99.90;;;;;;2118248;67;20178;-73
2022/01/30 02:45:35;;;;;;;25.85;6.43;;;5.10;99.90;;;;;;2117977;67;20657;-73
2022/01/30 02:48:29;;;;;;;31.88;7.03;;;5.10;99.90;;;;;;2117468;67;20270;-72
2022/01/30 02:51:15;;;;;;;32.72;7.38;;;5.00;99.90;;;;;;2116798;67;20772;-73
2022/01/30 02:54:02;;;;;;;25.20;6.30;;;5.00;99.90;;;;;;2119536;67;20361;-73
2022/01/30 02:56:45;;;;;;;29.80;6.88;;;4.90;99.90;;;;;;2139261;67;20353;-73
2022/01/30 02:59:30;;;;;;;26.42;6.60;;;4.90;99.90;;;;;;2135801;67;20180;-72
2022/01/30 03:02:12;;;;;;;25.58;6.75;;;5.00;99.90;;;;;;2135078;66;20402;-73
2022/01/30 03:04:54;;;;;;;34.63;7.47;;;5.10;99.90;;;;;;2133236;67;20182;-73
2022/01/30 03:07:36;;;;;;;29.85;6.80;;;5.20;99.90;;;;;;2137783;67;20254;-73
2022/01/30 03:10:21;;;;;;;23.73;6.85;;;5.20;99.90;;;;;;2129054;66;20367;-72
2022/01/30 03:13:02;;;;;;;21.55;7.15;;;5.40;99.90;;;;;;2133897;67;20271;-73
2022/01/30 03:15:44;;;;;;;26.92;6.70;;;5.50;99.90;;;;;;2125864;67;20370;-72
2022/01/30 03:18:26;;;;;;;29.40;5.55;;;5.60;99.90;;;;;;2129168;67;20171;-72
2022/01/30 03:21:12;;;;;;;25.63;7.53;;;5.60;99.90;;;;;;2131875;67;20728;-73
2022/01/30 03:23:57;;;;;;;30.73;7.13;;;5.70;99.90;;;;;;2124507;67;20272;-73
2022/01/30 03:26:40;;;;;;;21.08;7.38;;;5.70;99.90;;;;;;2124571;67;20793;-73
2022/01/30 03:29:24;;;;;;;22.70;6.78;;;5.80;99.90;;;;;;2131719;67;20344;-71
2022/01/30 03:32:14;;;;;;;28.38;8.10;;;5.80;99.90;;;;;;2124607;67;20211;-73
2022/01/30 03:34:56;;;;;;;24.38;6.50;;;5.60;99.90;;;;;;2118201;67;20333;-71
2022/01/30 03:37:38;;;;;;;30.83;7.25;;;5.80;99.90;;;;;;2111729;67;20369;-72
2022/01/30 03:40:20;;;;;;;29.80;7.38;;;5.90;99.90;;;;;;2105385;67;20322;-73
2022/01/30 03:43:03;;;;;;;30.92;7.22;;;6.30;99.90;;;;;;2106113;67;20312;-73
2022/01/30 03:45:47;;;;;;;25.33;6.63;;;5.90;99.90;;;;;;2111494;67;20173;-73
2022/01/30 03:48:32;;;;;;;24.35;7.20;;;6.00;99.90;;;;;;2117231;67;20360;-72
2022/01/30 03:51:15;;;;;;;33.08;7.85;;;5.80;99.90;;;;;;2111242;67;20189;-72
2022/01/30 03:53:56;;;;;;;27.42;7.35;;;5.80;99.90;;;;;;2122577;67;20282;-73
2022/01/30 03:56:38;;;;;;;27.85;7.80;;;5.70;99.90;;;;;;2126257;67;20262;-73
2022/01/30 03:59:20;;;;;;;30.17;7.78;;;5.70;99.90;;;;;;2120441;67;20365;-73
2022/01/30 04:02:02;;;;;;;30.38;7.88;;;5.60;99.90;;;;;;2133016;67;20715;-72
2022/01/30 04:04:44;;;;;;;25.80;7.28;;;5.90;99.90;;;;;;2133840;67;20267;-73
2022/01/30 04:07:32;;;;;;;24.50;5.90;;;5.60;99.90;;;;;;2125591;67;20220;-71
2022/01/30 04:10:15;;;;;;;35.80;6.53;;;5.70;99.90;;;;;;2137104;67;20715;-73
2022/01/30 04:12:58;;;;;;;24.48;6.63;;;5.60;99.90;;;;;;2147411;66;20340;-73
2022/01/30 04:15:41;;;;;;;29.40;7.28;;;5.60;99.90;;;;;;2142416;66;20202;-73
2022/01/30 04:18:23;;;;;;;25.48;8.10;;;5.60;99.90;;;;;;2146764;66;20166;-74
2022/01/30 04:21:06;;;;;;;24.45;7.50;;;5.60;99.90;;;;;;2131536;67;20234;-73
2022/01/30 04:23:48;;;;;;;31.67;8.20;;;5.60;99.90;;;;;;2125816;67;20200;-72
2022/01/30 04:26:30;;;;;;;33.13;10.05;;;5.50;99.90;;;;;;2114761;67;20660;-72
2022/01/30 04:29:12;;;;;;;38.70;9.63;;;5.60;99.90;;;;;;2135284;67;20227;-73
2022/01/30 04:31:54;;;;;;;33.67;8.40;;;5.70;99.90;;;;;;2147529;66;20358;-72
2022/01/30 04:34:42;;;;;;;20.55;7.47;;;5.70;99.90;;;;;;2156408;66;20753;-72
2022/01/30 04:37:35;;;;;;;33.55;8.98;;;5.80;99.90;;;;;;2139701;67;20242;-72
2022/01/30 04:52:52;;;;;;;44.95;9.25;;;5.80;99.90;;;;;;2132685;67;20183;-73
2022/01/30 04:58:50;;;;;;;30.23;8.30;;;5.80;99.90;;;;;;2132006;67;20269;-73
2022/01/30 05:07:34;;;;;;;34.20;8.55;;;6.00;99.90;;;;;;2133898;67;20238;-73
2022/01/30 05:10:16;;;;;;;37.33;8.63;;;6.00;99.90;;;;;;2118968;67;20676;-73
2022/01/30 05:13:00;;;;;;;42.65;13.25;;;5.90;99.90;;;;;;2126336;67;20301;-73
2022/01/30 05:15:43;;;;;;;39.90;9.80;;;6.10;99.90;;;;;;2110496;67;20319;-73
2022/01/30 05:18:29;;;;;;;36.40;8.70;;;6.00;99.90;;;;;;2118568;67;20173;-72
2022/01/30 05:21:15;;;;;;;32.05;8.50;;;6.00;99.90;;;;;;2140640;66;20330;-73
2022/01/30 05:23:58;;;;;;;29.33;7.70;;;6.00;99.90;;;;;;2146514;66;20543;-73
2022/01/30 05:26:42;;;;;;;36.65;8.27;;;6.00;99.90;;;;;;2131621;67;20239;-72
2022/01/30 05:29:25;;;;;;;31.92;8.70;;;5.90;99.90;;;;;;2125612;67;20404;-73
2022/01/30 05:32:09;;;;;;;38.08;7.70;;;5.80;99.90;;;;;;2119353;67;20222;-73
2022/01/30 05:34:52;;;;;;;34.28;8.65;;;5.70;99.90;;;;;;2120358;67;20695;-73
2022/01/30 05:37:37;;;;;;;41.40;10.52;;;5.70;99.90;;;;;;2119213;67;20743;-74
2022/01/30 05:40:24;;;;;;;34.15;9.30;;;5.70;99.90;;;;;;2116050;67;20206;-73
2022/01/30 05:43:07;;;;;;;34.95;10.05;;;5.70;99.90;;;;;;2129334;67;20302;-73
2022/01/30 05:45:59;;;;;;;37.08;10.20;;;5.80;99.90;;;;;;2134067;67;20258;-73
2022/01/30 05:48:41;;;;;;;39.42;10.27;;;5.80;99.90;;;;;;2134856;67;20251;-73
2022/01/30 05:51:23;;;;;;;30.83;9.65;;;5.80;99.90;;;;;;2132975;67;20223;-72
2022/01/30 05:54:05;;;;;;;34.70;8.55;;;5.80;99.90;;;;;;2129634;67;20343;-73
2022/01/30 05:56:47;;;;;;;26.55;8.40;;;5.90;99.90;;;;;;2134684;67;20188;-71
2022/01/30 05:59:29;;;;;;;29.52;6.63;;;5.70;99.90;;;;;;2124718;67;20321;-73
2022/01/30 06:02:11;;;;;;;32.88;6.93;;;5.70;99.90;;;;;;2128020;67;20267;-74
2022/01/30 06:04:53;;;;;;;29.65;7.43;;;5.50;99.90;;;;;;2113594;67;20378;-73
2022/01/30 06:07:46;;;;;;;29.42;6.80;;;5.50;99.90;;;;;;2110770;67;20185;-73
2022/01/30 06:10:30;;;;;;;22.70;7.15;;;5.40;99.90;;;;;;2099363;68;20367;-72
2022/01/30 06:13:12;;;;;;;33.83;7.50;;;5.30;99.90;;;;;;2107841;67;20236;-73
2022/01/30 06:15:55;;;;;;;21.30;7.20;;;5.30;99.90;;;;;;2112889;67;20230;-72
2022/01/30 06:18:39;;;;;;;31.42;7.88;;;5.30;99.90;;;;;;2095412;68;20536;-73
2022/01/30 06:21:21;;;;;;;31.70;8.77;;;5.40;99.90;;;;;;2097551;68;20265;-72
2022/01/30 06:24:04;;;;;;;33.47;8.63;;;5.40;99.90;;;;;;2093240;68;20187;-73
2022/01/30 06:26:46;;;;;;;36.53;8.02;;;5.40;99.90;;;;;;2095038;68;20928;-72
2022/01/30 06:29:29;;;;;;;36.70;8.75;;;5.40;99.90;;;;;;2117023;67;20181;-72
2022/01/30 06:32:16;;;;;;;30.58;8.55;;;5.40;99.90;;;;;;2133160;67;20273;-72
2022/01/30 06:35:02;;;;;;;38.17;8.52;;;5.50;99.90;;;;;;2132870;67;20337;-72
2022/01/30 06:37:52;;;;;;;35.63;9.45;;;5.50;99.90;;;;;;2144325;67;20289;-72
2022/01/30 06:40:28;;;;;;;31.52;7.60;;;5.60;99.90;;;;;;2137351;67;20294;-71
2022/01/30 06:43:19;;;;;;;24.75;6.55;;;5.60;99.90;;;;;;2135542;67;20179;-73
2022/01/30 06:46:15;;;;;;;30.42;8.13;;;5.60;99.90;;;;;;2125377;67;20233;-72
2022/01/30 06:48:51;;;;;;;30.95;7.95;;;5.80;99.90;;;;;;2120681;67;21230;-73
2022/01/30 06:51:45;;;;;;;31.20;7.65;;;5.80;99.90;;;;;;2126128;67;20675;-72
2022/01/30 06:54:21;;;;;;;33.05;8.27;;;5.80;99.90;;;;;;2135208;66;20199;-73
2022/01/30 06:57:12;;;;;;;31.10;8.73;;;5.80;99.90;;;;;;2156836;66;20176;-74
2022/01/30 06:59:49;;;;;;;36.25;8.55;;;5.90;99.90;;;;;;2168678;66;20180;-73
2022/01/30 07:02:19;;;;;;;34.55;7.78;;;5.90;99.90;;;;;;2165403;65;20176;-73
2022/01/30 07:04:55;;;;;;;35.17;9.27;;;5.90;99.90;;;;;;2194883;65;20226;-73
2022/01/30 07:07:31;;;;;;;38.58;8.57;;;5.90;99.90;;;;;;2198671;65;20173;-72
2022/01/30 07:10:08;;;;;;;34.42;8.63;;;5.80;99.90;;;;;;2203346;65;20318;-73
2022/01/30 07:12:45;;;;;;;33.22;8.73;;;5.80;99.90;;;;;;2206324;65;20337;-73
2022/01/30 07:15:24;;;;;;;32.88;9.02;;;5.80;99.90;;;;;;2220442;64;20179;-73
2022/01/30 07:17:59;;;;;;;28.88;7.72;;;5.70;99.90;;;;;;2221715;64;20234;-72
2022/01/30 07:20:36;;;;;;;33.33;8.32;;;5.70;99.90;;;;;;2221606;64;20613;-73
2022/01/30 07:23:15;;;;;;;27.75;7.15;;;5.80;99.90;;;;;;2221582;64;20192;-73
2022/01/30 07:25:51;;;;;;;18.42;6.80;;;5.80;99.90;;;;;;2217367;64;20247;-73
2022/01/30 07:28:27;;;;;;;21.00;6.95;;;5.80;99.90;;;;;;2228474;64;20218;-73
2022/01/30 07:31:03;;;;;;;25.35;6.05;;;5.80;99.90;;;;;;2238231;64;20205;-74
2022/01/30 07:33:42;;;;;;;31.80;6.65;;;5.80;99.90;;;;;;2240598;63;20165;-74
2022/01/30 07:36:27;;;;;;;24.20;6.45;;;5.80;99.90;;;;;;2233639;64;20312;-73
2022/01/30 07:39:12;;;;;;;20.65;5.40;;;5.80;99.90;;;;;;2221834;64;20312;-73
2022/01/30 07:41:54;;;;;;;21.63;6.60;;;5.90;99.90;;;;;;2206099;65;20169;-73
2022/01/30 07:44:36;;;;;;;31.13;7.20;;;6.00;99.90;;;;;;2203477;65;20191;-74
2022/01/30 07:47:18;;;;;;;26.67;6.80;;;5.90;99.90;;;;;;2197644;65;20884;-73
2022/01/30 07:49:59;;;;;;;25.42;6.60;;;5.80;99.90;;;;;;2198170;65;20249;-73
2022/01/30 07:52:41;;;;;;;34.47;7.20;;;5.80;99.90;;;;;;2206003;65;20300;-73
2022/01/30 07:55:23;;;;;;;23.83;6.45;;;5.80;99.90;;;;;;2198238;65;20334;-72
2022/01/30 07:58:06;;;;;;;28.00;7.18;;;5.80;99.90;;;;;;2185879;65;20241;-72
2022/01/30 08:00:48;;;;;;;35.85;8.55;;;5.90;99.90;;;;;;2183159;65;20175;-72
2022/01/30 08:03:30;;;;;;;26.17;6.40;;;5.80;99.90;;;;;;2183154;65;20163;-74
2022/01/30 08:06:13;;;;;;;26.73;7.47;;;5.90;99.90;;;;;;2183107;65;20212;-72
2022/01/30 08:08:57;;;;;;;23.83;7.18;;;5.90;99.90;;;;;;2182232;65;20236;-73
2022/01/30 08:11:41;;;;;;;30.35;7.70;;;5.90;99.90;;;;;;2167903;66;20157;-72
2022/01/30 08:14:23;;;;;;;32.40;7.30;;;5.90;99.90;;;;;;2151814;66;20181;-74
2022/01/30 08:17:06;;;;;;;31.27;8.27;;;5.90;99.90;;;;;;2153204;66;20201;-73
2022/01/30 08:19:52;;;;;;;;;;;5.90;99.90;;;;;;2153799;66;20314;-72
2022/01/30 08:22:50;;;;;;;25.17;7.47;;;5.90;99.90;;;;;;2143328;66;20316;-73
2022/01/30 08:25:32;;;;;;;31.92;7.70;;;5.90;99.90;;;;;;2157972;66;20204;-72
2022/01/30 08:28:14;;;;;;;26.38;7.93;;;5.90;99.90;;;;;;2150776;66;20266;-73
2022/01/30 08:30:57;;;;;;;37.55;9.20;;;5.90;99.90;;;;;;2140422;66;20495;-73
2022/01/30 08:33:41;;;;;;;25.50;7.65;;;5.80;99.90;;;;;;2125667;67;20649;-73
2022/01/30 08:36:23;;;;;;;26.52;6.40;;;5.70;99.90;;;;;;2132157;67;20866;-73
2022/01/30 08:39:05;;;;;;;29.25;7.28;;;5.30;99.90;;;;;;2117961;67;20325;-74
2022/01/30 08:41:54;;;;;;;29.45;8.35;;;5.80;99.90;;;;;;2126110;67;20400;-73
2022/01/30 08:44:39;;;;;;;28.35;6.10;;;5.90;99.90;;;;;;2127345;67;20342;-73
2022/01/30 08:47:21;;;;;;;30.77;7.68;;;6.00;99.90;;;;;;2125200;67;20575;-73
2022/01/30 08:50:11;;;;;;;33.30;9.20;;;6.70;99.90;;;;;;2132712;67;20255;-74
2022/01/30 08:52:53;;;;;;;23.38;6.35;;;6.20;99.90;;;;;;2124053;67;20278;-72
2022/01/30 08:55:35;;;;;;;23.98;7.95;;;6.20;99.90;;;;;;2119159;67;20353;-72
2022/01/30 08:58:18;;;;;;;25.42;7.25;;;6.30;99.90;;;;;;2139032;67;20167;-72
2022/01/30 09:01:05;;;;;;;28.40;8.57;;;6.10;99.90;;;;;;2138976;67;20192;-72
2022/01/30 09:03:49;;;;;;;32.70;7.97;;;6.00;99.90;;;;;;2125570;67;20259;-72
2022/01/30 09:06:36;;;;;;;30.95;7.93;;;5.90;99.90;;;;;;2112372;67;20185;-72
2022/01/30 09:09:21;;;;;;;41.50;9.35;;;5.90;99.90;;;;;;2105620;67;20193;-72
2022/01/30 09:12:06;;;;;;;28.17;7.55;;;6.00;99.90;;;;;;2118034;67;20337;-73
2022/01/30 09:14:47;;;;;;;28.05;7.55;;;6.20;99.90;;;;;;2124510;67;20321;-72
2022/01/30 09:17:29;;;;;;;26.63;8.10;;;6.30;99.90;;;;;;2118120;67;20351;-73
2022/01/30 09:20:14;;;;;;;32.00;7.45;;;6.30;99.90;;;;;;2127004;67;20333;-73
2022/01/30 09:22:56;;;;;;;29.58;7.90;;;6.30;99.90;;;;;;2139014;67;20320;-72
2022/01/30 09:25:38;;;;;;;30.52;7.18;;;6.20;99.90;;;;;;2132455;67;20171;-72
2022/01/30 09:28:20;;;;;;;34.47;6.25;;;6.20;99.90;;;;;;2140537;66;20304;-73
2022/01/30 09:31:02;;;;;;;25.23;6.85;;;6.20;99.90;;;;;;2154149;66;20411;-73
2022/01/30 09:33:44;;;;;;;29.00;7.72;;;6.20;99.90;;;;;;2157068;66;20439;-73
2022/01/30 09:36:25;;;;;;;27.70;6.93;;;6.20;99.90;;;;;;2153568;66;20213;-73
2022/01/30 09:39:08;;;;;;;23.27;5.97;;;6.20;99.90;;;;;;2166251;66;20173;-74
2022/01/30 09:41:53;;;;;;;29.25;7.55;;;6.20;99.90;;;;;;2163897;66;20578;-71
2022/01/30 09:44:39;;;;;;;22.33;6.00;;;6.30;99.90;;;;;;2146412;66;20787;-73
2022/01/30 09:47:22;;;;;;;20.15;6.75;;;6.40;99.90;;;;;;2172684;65;20425;-73
2022/01/30 09:50:10;;;;;;;25.60;6.75;;;6.40;99.90;;;;;;2171155;65;20251;-72
2022/01/30 09:52:52;;;;;;;26.10;7.03;;;6.40;99.90;;;;;;2167602;66;20206;-74
2022/01/30 09:55:34;;;;;;;24.25;6.78;;;6.50;99.90;;;;;;2153742;66;20158;-72
2022/01/30 09:58:16;;;;;;;21.42;7.30;;;6.70;99.90;;;;;;2153078;66;20376;-74
2022/01/30 10:00:59;;;;;;;28.08;7.32;;;6.70;99.90;;;;;;2167852;66;20329;-73
2022/01/30 10:03:41;;;;;;;30.27;7.75;;;6.80;99.90;;;;;;2161400;66;20213;-75
2022/01/30 10:06:25;;;;;;;32.88;6.75;;;6.70;99.90;;;;;;2145477;66;20162;-73
2022/01/30 10:09:21;;;;;;;23.30;6.18;;;6.60;99.90;;;;;;2152472;66;20273;-71
2022/01/30 10:12:20;;;;;;;24.83;7.10;;;6.60;99.90;;;;;;2152610;66;20175;-73
2022/01/30 10:15:16;;;;;;;29.75;7.10;;;6.60;99.90;;;;;;2151505;66;20528;-73
2022/01/30 10:17:59;;;;;;;;;;;6.70;99.90;;;;;;2144001;66;20240;-73
2022/01/30 10:20:44;;;;;;;38.45;6.97;;;6.80;99.90;;;;;;2148882;66;20526;-73
2022/01/30 10:23:37;;;;;;;31.75;8.57;;;7.10;99.90;;;;;;2154462;66;20326;-72
2022/01/30 10:26:32;;;;;;;26.60;6.97;;;7.30;99.90;;;;;;2145655;66;20670;-72
2022/01/30 10:29:24;;;;;;;21.70;6.78;;;7.40;99.90;;;;;;2145792;66;20784;-73
2022/01/30 10:32:10;;;;;;;32.05;9.15;;;7.40;99.90;;;;;;2149564;66;20334;-74
2022/01/30 10:35:06;;;;;;;31.52;8.65;;;7.40;99.90;;;;;;2135851;66;20324;-74
2022/01/30 10:37:48;;;;;;;32.45;8.10;;;7.40;99.90;;;;;;2117149;67;20956;-73
2022/01/30 10:40:36;;;;;;;29.00;7.70;;;7.30;99.90;;;;;;2117082;67;20250;-73
2022/01/30 10:43:22;;;;;;;21.83;6.70;;;7.20;99.90;;;;;;2121851;67;20293;-72
2022/01/30 10:46:42;;;;;;;27.50;7.68;;;7.30;99.90;;;;;;2128713;67;20432;-74
2022/01/30 10:49:24;;;;;;;29.45;7.65;;;7.30;99.90;;;;;;2125089;67;20271;-73
2022/01/30 10:52:14;;;;;;;24.90;6.63;;;7.40;99.90;;;;;;2128464;67;20636;-73
2022/01/30 10:55:05;;;;;;;23.98;6.93;;;7.30;99.90;;;;;;2130981;67;20730;-73
2022/01/30 10:57:52;;;;;;;31.05;7.07;;;7.30;99.90;;;;;;2136526;66;20662;-73
2022/01/30 11:00:59;;;;;;;25.23;6.53;;;7.20;99.90;;;;;;2146468;66;20366;-73
2022/01/30 11:03:50;;;;;;;26.80;7.47;;;7.20;99.90;;;;;;2140786;66;20583;-73
2022/01/30 11:06:39;;;;;;;35.88;7.18;;;7.30;99.90;;;;;;2137923;66;20281;-72
2022/01/30 11:09:26;;;;;;;28.05;6.50;;;7.30;99.90;;;;;;2131182;67;20418;-73
2022/01/30 11:12:15;;;;;;;16.52;5.28;;;7.40;99.90;;;;;;2134713;66;20232;-73
2022/01/30 11:15:15;;;;;;;25.05;7.38;;;7.50;99.90;;;;;;2137657;66;20283;-73
2022/01/30 11:18:03;;;;;;;27.25;6.47;;;7.60;99.90;;;;;;2132778;67;20851;-73
2022/01/30 11:20:49;;;;;;;21.27;5.95;;;7.70;99.90;;;;;;2120868;67;20333;-73
2022/01/30 11:23:31;;;;;;;22.52;6.82;;;8.20;99.90;;;;;;2133292;67;20397;-75
2022/01/30 11:26:15;;;;;;;25.20;6.88;;;7.90;99.90;;;;;;2147112;66;20764;-73
2022/01/30 11:28:57;;;;;;;27.95;6.90;;;7.90;99.90;;;;;;2133340;66;20225;-73
2022/01/30 11:31:41;;;;;;;25.77;7.25;;;8.00;99.90;;;;;;2133277;67;20320;-73
2022/01/30 11:34:27;;;;;;;28.60;7.70;;;8.30;99.90;;;;;;2133023;67;20840;-72
2022/01/30 11:37:14;;;;;;;23.50;6.90;;;8.60;99.90;;;;;;2133184;67;20308;-72
2022/01/30 11:39:56;;;;;;;29.27;6.32;;;9.00;99.90;;;;;;2139047;66;20178;-73
2022/01/30 11:42:49;;;;;;;27.42;6.70;;;9.30;99.90;;;;;;2141189;66;20257;-73
2022/01/30 11:45:32;;;;;;;23.30;7.60;;;9.50;99.90;;;;;;2145344;66;20334;-73
2022/01/30 11:48:15;;;;;;;24.17;7.32;;;9.90;99.90;;;;;;2151920;66;20377;-72
2022/01/30 11:51:03;;;;;;;21.40;5.88;;;10.10;97.80;;;;;;2138917;66;20889;-73
2022/01/30 11:53:45;;;;;;;27.25;7.45;;;10.20;95.90;;;;;;2132063;67;20184;-73
2022/01/30 11:56:33;;;;;;;19.13;6.85;;;10.30;95.60;;;;;;2139067;66;20312;-73
2022/01/30 11:59:36;;;;;;;21.63;5.95;;;10.50;95.10;;;;;;2133535;67;20764;-72
2022/01/30 12:02:30;;;;;;;21.52;6.47;;;10.40;91.30;;;;;;2132188;67;20207;-73
2022/01/30 12:05:13;;;;;;;27.50;6.57;;;10.20;90.30;;;;;;2133565;66;20328;-73
2022/01/30 12:07:55;;;;;;;18.83;5.85;;;10.20;92.50;;;;;;2140888;66;20174;-78
2022/01/30 12:10:41;;;;;;;20.10;6.40;;;10.20;92.40;;;;;;2144874;66;20695;-77
2022/01/30 12:14:02;;;;;;;25.95;6.90;;;10.30;93.00;;;;;;2147848;66;20325;-75
2022/01/30 12:16:46;;;;;;;22.33;6.40;;;10.70;90.50;;;;;;2142773;66;20195;-76
2022/01/30 12:19:31;;;;;;;22.38;7.13;;;10.70;91.20;;;;;;2128793;67;20184;-76
2022/01/30 12:22:20;;;;;;;28.55;7.70;;;10.60;91.30;;;;;;2126330;67;20169;-74
2022/01/30 12:25:22;;;;;;;19.10;5.78;;;10.30;92.10;;;;;;2132188;67;20203;-76
2022/01/30 12:28:07;;;;;;;20.92;6.50;;;9.90;91.30;;;;;;2139851;66;20422;-74
2022/01/30 12:30:53;;;;;;;25.10;5.65;;;9.60;91.40;;;;;;2140548;66;20239;-75
2022/01/30 12:33:40;;;;;;;21.05;6.68;;;9.40;91.60;;;;;;2135197;66;20261;-75
2022/01/30 12:36:24;;;;;;;28.50;7.00;;;9.20;91.80;;;;;;2135915;66;20253;-74
2022/01/30 12:39:18;;;;;;;19.88;6.85;;;9.20;92.40;;;;;;2138666;66;20800;-74
2022/01/30 12:42:01;;;;;;;23.67;7.20;;;9.30;92.00;;;;;;2130172;67;20196;-73
2022/01/30 12:44:47;;;;;;;21.70;5.80;;;9.70;91.60;;;;;;2120130;67;20176;-73
2022/01/30 12:47:29;;;;;;;17.20;5.07;;;10.10;90.10;;;;;;2118563;67;20231;-73
2022/01/30 12:50:14;;;;;;;19.83;5.40;;;10.60;82.00;;;;;;2127992;67;20180;-72
2022/01/30 12:52:57;;;;;;;20.80;5.22;;;11.00;80.20;;;;;;2125572;67;20335;-74
2022/01/30 12:55:41;;;;;;;23.05;5.60;;;11.40;78.30;;;;;;2124041;67;20373;-74
2022/01/30 12:58:34;;;;;;;26.92;6.60;;;11.80;75.10;;;;;;2121119;67;20254;-73
2022/01/30 13:01:16;;;;;;;16.95;4.68;;;12.50;70.90;;;;;;2105863;67;20866;-72
2022/01/30 13:04:03;;;;;;;15.30;5.00;;;12.80;71.20;;;;;;2122820;67;20192;-71
2022/01/30 13:06:51;;;;;;;16.77;5.43;;;13.10;67.30;;;;;;2116915;67;20612;-72
2022/01/30 13:09:33;;;;;;;18.77;5.35;;;13.20;62.50;;;;;;2124910;67;20336;-72
2022/01/30 13:12:16;;;;;;;17.10;5.03;;;13.30;62.70;;;;;;2129999;67;20246;-74
2022/01/30 13:14:59;;;;;;;20.48;5.43;;;13.40;62.20;;;;;;2122511;67;20795;-73
2022/01/30 13:17:47;;;;;;;23.75;5.88;;;13.50;62.40;;;;;;2103278;67;20332;-72
2022/01/30 13:20:30;;;;;;;17.58;6.47;;;13.60;61.10;;;;;;2101697;67;20263;-74
2022/01/30 13:23:16;;;;;;;;;;;13.70;62.20;;;;;;2121437;67;20372;-73
2022/01/30 13:26:02;;;;;;;14.93;4.78;;;13.80;59.40;;;;;;2114588;67;20266;-72
2022/01/30 13:28:52;;;;;;;20.00;5.28;;;13.60;60.00;;;;;;2136077;66;20533;-72
2022/01/30 13:31:37;;;;;;;13.50;5.10;;;13.00;61.90;;;;;;2136450;66;20224;-73
2022/01/30 13:34:24;;;;;;;21.48;5.93;;;12.30;62.50;;;;;;2134222;67;20206;-72
2022/01/30 13:37:12;;;;;;;15.90;5.18;;;11.70;64.50;;;;;;2134542;66;20595;-73
2022/01/30 13:40:12;;;;;;;18.52;5.60;;;11.40;64.80;;;;;;2136705;67;20331;-72
2022/01/30 13:42:57;;;;;;;15.80;4.07;;;11.20;64.50;;;;;;2120961;67;20967;-72
2022/01/30 13:48:34;;;;;;;22.15;5.03;;;10.70;65.40;;;;;;2113227;67;20177;-73
2022/01/30 13:51:22;;;;;;;20.00;5.45;;;10.50;66.50;;;;;;2120460;67;20309;-73
2022/01/30 13:54:13;;;;;;;15.48;4.85;;;10.20;67.80;;;;;;2127770;67;20249;-74
2022/01/30 13:57:21;;;;;;;22.33;5.63;;;9.90;69.10;;;;;;2124210;67;20317;-72
2022/01/30 14:00:08;;;;;;;19.45;4.70;;;9.70;69.70;;;;;;2117920;67;20719;-72
2022/01/30 14:03:04;;;;;;;24.25;6.05;;;9.60;70.50;;;;;;2114446;67;20266;-72
2022/01/30 14:05:46;;;;;;;18.83;4.97;;;9.60;71.10;;;;;;2117508;67;21047;-72
2022/01/30 14:08:28;;;;;;;20.15;5.43;;;9.60;71.50;;;;;;2110998;67;20383;-73
2022/01/30 14:11:12;;;;;;;21.95;5.90;;;9.50;71.70;;;;;;2103873;67;20958;-73
2022/01/30 14:13:59;;;;;;;23.35;6.25;;;9.40;72.00;;;;;;2126340;67;20254;-73
2022/01/30 14:17:04;;;;;;;27.77;6.65;;;9.30;73.00;;;;;;2139857;66;20334;-72
2022/01/30 14:20:00;;;;;;;18.85;5.60;;;9.30;74.20;;;;;;2105524;67;20371;-74
2022/01/30 14:22:44;;;;;;;18.37;5.33;;;9.20;74.60;;;;;;2115880;67;20189;-72
2022/01/30 14:25:29;;;;;;;20.63;6.35;;;9.20;75.20;;;;;;2092513;68;20962;-72
2022/01/30 14:28:32;;;;;;;20.80;5.68;;;9.10;75.90;;;;;;2109150;67;20273;-73
2022/01/30 14:31:18;;;;;;;23.92;6.90;;;9.00;76.60;;;;;;2097116;68;20644;-72
2022/01/30 14:34:03;;;;;;;23.65;5.47;;;8.90;76.70;;;;;;2115836;67;20203;-72
2022/01/30 14:36:45;;;;;;;19.23;5.75;;;8.80;77.50;;;;;;2132064;67;20435;-75
2022/01/30 14:39:28;;;;;;;17.27;5.80;;;8.80;78.70;;;;;;2132352;67;20483;-73
2022/01/30 14:42:12;;;;;;;21.95;6.35;;;8.70;79.90;;;;;;2124747;67;20234;-73
2022/01/30 14:44:54;;;;;;;25.23;5.63;;;8.60;81.00;;;;;;2103761;68;20934;-72
2022/01/30 14:47:39;;;;;;;19.55;6.40;;;8.50;82.80;;;;;;2104133;68;20271;-72
2022/01/30 14:50:23;;;;;;;26.90;6.55;;;8.40;83.50;;;;;;2119350;67;20386;-72
2022/01/30 14:53:06;;;;;;;24.42;6.47;;;8.30;84.10;;;;;;2123813;67;20342;-72
2022/01/30 14:55:48;;;;;;;24.17;6.28;;;8.20;85.40;;;;;;2111096;67;20307;-73
2022/01/30 14:58:30;;;;;;;21.42;6.85;;;8.20;86.70;;;;;;2118152;67;20296;-73
2022/01/30 15:01:13;;;;;;;21.13;4.72;;;8.10;89.10;;;;;;2132440;67;20319;-73
2022/01/30 15:03:55;;;;;;;14.77;5.47;;;8.00;90.40;;;;;;2132187;67;20239;-73
2022/01/30 15:06:40;;;;;;;25.85;6.38;;;8.00;91.30;;;;;;2125078;67;20697;-73